Burdette, AR (72321)

9:55 PM CDT on May 25, 2015 (GMT -0500)
Blytheville Municipal | | Change Station
CLOSE
Current Station
Airport
Location: Blytheville Muni Airport,
Elevation: 256 ft
Nearby Weather Stations

Elev 256 ft 35.94 °N, 89.83 °W | Updated 1 hour ago

Partly Cloudy
Partly Cloudy
76 °F
Feels Like 76 °F
N
10
Wind Variable Wind from SE

Today
High -- | Low -- °F
--% Chance of Precip.
Yesterday
High -- | Low -- °F
Precip. -- in
5:47 AM 8:05 PM
First Quarter, 54% visible
Pressure 29.99 in
Visibility 10.0 miles
Clouds Few 3900 ft
Dew Point 72 °F
Humidity 87%
Rainfall 0.63 in
Snow Depth Not available.
UV 0 out of 12
Pollen .70 out of 12
Air Quality Not available.
Flu Activity No Activity
METAR KHKA 260153Z AUTO 13009KT 10SM FEW039 24/22 A3000 RMK AO2 SLP156 T02440222 $

More Conditions Fewer Conditions

Pressure 29.99 in
Visibility 10.0 miles
Clouds Few 3900 ft
Dew Point 72 °F
Humidity 87%
Rainfall 0.63 in
Snow Depth Not available.
UV 0 out of 12
Pollen .70 out of 12
Air Quality Not available.
Flu Activity No Activity
METAR KHKA 260153Z AUTO 13009KT 10SM FEW039 24/22 A3000 RMK AO2 SLP156 T02440222 $

More Conditions Fewer Conditions

10-Day Weather Forecast

Almanac

Astronomy

May. 25, 2015 Rise Set
Actual Time
Civil Twilight
Nautical Twilight
Astronomical Twilight
Moon
Length of Visible Light
Length of Day
Tomorrow will be .
, % of the Moon is Illuminated

Today's Extremes

State Highs State Lows

Community

WunderPhotos

Upload Photos

1,824,238 photos uploaded!

WunderBlogs® & News

Nearby

Air Quality

  Air Quality AQ Index Pollutant
Not available.

Snow Depth

Station Depth Elevation

Earthquake Activity

City Distance Mag. Time & Date
Minimum magnitude displayed is 2.5.

Coastal Water Temperatures

Place Temperature

Stations

Nearby Weather Stations

Station Location Temp. Windchill Dew Point Humidity Wind Precip. Elev Updated Type